createdAt,value
2023-10-17T00:01:28.205Z,3.63
2023-10-17T00:06:31.447Z,4.06
2023-10-17T00:11:34.500Z,3.97
2023-10-17T00:16:36.278Z,3.86
2023-10-17T00:21:39.848Z,3.71
2023-10-17T00:26:41.617Z,3.70
2023-10-17T00:31:43.754Z,3.61
2023-10-17T00:36:47.019Z,3.42
2023-10-17T00:41:48.534Z,3.43
2023-10-17T00:46:50.229Z,3.12
2023-10-17T00:51:54.761Z,3.29
2023-10-17T00:56:56.532Z,3.24
2023-10-17T01:01:58.296Z,3.23
2023-10-17T01:07:01.504Z,3.11
2023-10-17T01:12:03.906Z,3.11
2023-10-17T01:17:05.743Z,3.03
2023-10-17T01:22:08.837Z,3.00
2023-10-17T01:27:11.886Z,2.97
2023-10-17T01:32:13.539Z,2.93
2023-10-17T01:37:15.484Z,3.04
2023-10-17T01:42:18.565Z,3.05
2023-10-17T01:47:20.260Z,3.11
2023-10-17T01:52:21.909Z,3.14
2023-10-17T01:57:25.160Z,3.18
2023-10-17T02:02:26.948Z,3.21
2023-10-17T02:07:28.804Z,3.23
2023-10-17T02:12:31.862Z,3.27
2023-10-17T02:17:34.384Z,3.34
2023-10-17T02:22:36.351Z,3.16
2023-10-17T02:27:39.325Z,3.39
2023-10-17T02:32:41.092Z,3.33
2023-10-17T02:37:42.843Z,3.43
2023-10-17T02:42:45.862Z,3.48
2023-10-17T02:47:47.911Z,3.56
2023-10-17T02:52:49.585Z,3.39
2023-10-17T02:57:52.980Z,3.63
2023-10-17T03:02:54.664Z,3.64
2023-10-17T03:07:56.408Z,3.58
2023-10-17T03:12:59.377Z,3.70
2023-10-17T03:18:01.323Z,3.73
2023-10-17T03:23:03.846Z,3.41
2023-10-17T03:28:07.998Z,3.52
2023-10-17T03:33:10.270Z,3.67
2023-10-17T03:38:12.040Z,3.82
2023-10-17T03:43:15.055Z,3.82
2023-10-17T03:48:16.764Z,3.82
2023-10-17T03:53:18.435Z,3.84
2023-10-17T03:58:22.701Z,3.87
2023-10-17T04:03:25.067Z,3.92
2023-10-17T04:08:26.946Z,3.96
2023-10-17T04:13:29.958Z,3.94
2023-10-17T04:18:31.691Z,3.89
2023-10-17T04:23:33.519Z,3.95
2023-10-17T04:28:36.529Z,3.94
2023-10-17T04:33:38.242Z,3.94
2023-10-17T04:38:40.049Z,3.97
2023-10-17T04:43:43.141Z,3.82
2023-10-17T04:48:44.823Z,3.89
2023-10-17T04:53:46.686Z,4.01
2023-10-17T04:58:50.197Z,3.97
2023-10-17T05:03:52.079Z,3.88
2023-10-17T05:08:54.064Z,3.95
2023-10-17T05:13:57.070Z,3.93
2023-10-17T05:18:58.990Z,3.93
2023-10-17T05:24:01.156Z,3.61
2023-10-17T05:29:11.836Z,3.93
2023-10-17T05:34:14.393Z,3.94
2023-10-17T05:39:16.118Z,3.99
2023-10-17T05:44:19.394Z,4.06
2023-10-17T05:49:20.936Z,4.06
2023-10-17T05:54:47.314Z,4.11
2023-10-17T05:59:45.638Z,4.17
2023-10-17T06:04:47.450Z,4.22
2023-10-17T06:09:49.295Z,4.26
2023-10-17T06:14:52.592Z,4.27
2023-10-17T06:19:55.835Z,4.31
2023-10-17T06:24:57.583Z,4.36
2023-10-17T06:30:00.724Z,4.24
2023-10-17T06:35:02.175Z,4.56
2023-10-17T06:40:04.397Z,4.63
2023-10-17T06:45:09.160Z,4.71
2023-10-17T06:50:11.289Z,3.96
2023-10-17T06:55:13.096Z,4.80
2023-10-17T07:00:17.393Z,5.01
2023-10-17T07:05:19.046Z,5.13
2023-10-17T07:10:22.076Z,5.11
2023-10-17T07:15:25.096Z,5.40
2023-10-17T07:20:28.812Z,5.57
2023-10-17T07:25:32.978Z,5.66
2023-10-17T07:30:36.226Z,5.80
2023-10-17T07:35:37.950Z,4.95
2023-10-17T07:40:39.673Z,6.03
2023-10-17T07:45:42.780Z,6.25
2023-10-17T07:50:44.572Z,6.45
2023-10-17T07:55:47.193Z,6.57
2023-10-17T08:00:50.352Z,6.73
2023-10-17T08:05:52.404Z,6.88
2023-10-17T08:10:57.424Z,7.04
2023-10-17T08:16:06.580Z,7.21
2023-10-17T08:21:08.538Z,7.39
2023-10-17T08:26:10.278Z,7.58
2023-10-17T08:31:14.960Z,7.78
2023-10-17T08:36:16.677Z,8.01
2023-10-17T08:41:18.273Z,8.20
2023-10-17T08:46:21.539Z,8.27
2023-10-17T08:56:30.190Z,8.58
2023-10-17T09:01:33.401Z,8.24
2023-10-17T09:06:35.334Z,8.82
2023-10-17T09:11:37.047Z,8.93
2023-10-17T09:16:40.131Z,9.06
2023-10-17T09:21:45.887Z,9.22
2023-10-17T09:26:47.741Z,9.39
2023-10-17T09:31:50.866Z,9.57
2023-10-17T09:36:57.261Z,9.53
2023-10-17T09:41:58.952Z,9.80
2023-10-17T09:47:03.568Z,9.82
2023-10-17T09:52:06.230Z,9.96
2023-10-17T09:57:10.765Z,9.89
2023-10-17T10:02:15.296Z,10.23
2023-10-17T10:07:21.794Z,10.45
2023-10-17T10:12:23.550Z,10.46
2023-10-17T10:17:45.393Z,10.48
2023-10-17T10:22:53.301Z,10.47
2023-10-17T10:28:26.971Z,10.38
2023-10-17T10:33:30.285Z,10.19
2023-10-17T10:38:32.193Z,10.07
2023-10-17T10:43:34.177Z,10.11
2023-10-17T10:48:37.274Z,10.31
2023-10-17T10:53:39.610Z,10.61
2023-10-17T10:58:46.173Z,10.92
2023-10-17T11:03:50.728Z,11.32
2023-10-17T11:08:53.386Z,11.58
2023-10-17T11:13:55.225Z,11.81
2023-10-17T11:18:58.443Z,12.04
2023-10-17T11:24:03.318Z,12.17
2023-10-17T11:29:05.399Z,12.34
2023-10-17T11:34:08.578Z,12.51
2023-10-17T11:39:10.302Z,12.82
2023-10-17T11:44:12.207Z,13.04
2023-10-17T11:49:19.500Z,13.26
2023-10-17T11:54:33.080Z,13.49
2023-10-17T11:59:36.640Z,13.74
2023-10-17T12:04:39.963Z,13.82
2023-10-17T12:09:41.792Z,13.87
2023-10-17T12:14:43.693Z,14.06
2023-10-17T12:19:47.059Z,14.26
2023-10-17T12:24:48.745Z,14.40
2023-10-17T12:29:50.422Z,14.45
2023-10-17T12:34:53.414Z,14.49
2023-10-17T12:39:55.198Z,14.46
2023-10-17T12:44:56.896Z,14.72
2023-10-17T12:49:59.936Z,14.85
2023-10-17T12:55:01.754Z,14.74
2023-10-17T13:00:04.024Z,14.65
2023-10-17T13:05:09.757Z,14.68
2023-10-17T13:10:11.390Z,14.81
2023-10-17T13:15:13.243Z,14.74
2023-10-17T13:20:28.050Z,14.78
2023-10-17T13:25:38.692Z,14.28
2023-10-17T13:30:40.460Z,14.95
2023-10-17T13:35:43.537Z,15.05
2023-10-17T13:40:45.224Z,15.17
2023-10-17T13:45:46.916Z,15.13
2023-10-17T13:50:50.070Z,15.27
2023-10-17T13:55:51.779Z,15.33
2023-10-17T14:00:53.504Z,15.23
2023-10-17T14:05:56.600Z,15.19
2023-10-17T14:10:58.304Z,15.21
2023-10-17T14:16:00.230Z,15.31
2023-10-17T14:21:03.389Z,15.44
2023-10-17T14:26:05.124Z,15.35
2023-10-17T14:31:07.204Z,15.15
2023-10-17T14:36:11.807Z,15.09
2023-10-17T14:41:15.260Z,14.43
2023-10-17T14:46:18.027Z,14.54
2023-10-17T14:51:22.831Z,14.95
2023-10-17T14:56:24.581Z,14.94
2023-10-17T15:01:26.279Z,14.97
2023-10-17T15:06:29.500Z,14.95
2023-10-17T15:11:31.453Z,14.97
2023-10-17T15:16:33.154Z,14.90
2023-10-17T15:21:36.279Z,14.73
2023-10-17T15:26:37.953Z,14.59
2023-10-17T15:31:39.750Z,14.38
2023-10-17T15:36:42.816Z,14.20
2023-10-17T15:41:44.440Z,13.94
2023-10-17T15:46:46.085Z,13.56
2023-10-17T15:51:49.145Z,13.17
2023-10-17T15:56:51.041Z,12.72
2023-10-17T16:01:52.748Z,12.51
2023-10-17T16:06:55.886Z,12.19
2023-10-17T16:11:57.523Z,11.89
2023-10-17T16:16:59.372Z,11.64
2023-10-17T16:22:02.471Z,11.34
2023-10-17T16:27:04.313Z,11.03
2023-10-17T16:32:06.352Z,10.75
2023-10-17T16:37:09.315Z,10.42
2023-10-17T16:42:11.196Z,10.05
2023-10-17T16:47:12.838Z,9.75
2023-10-17T16:52:15.866Z,9.39
2023-10-17T16:57:17.572Z,9.09
2023-10-17T17:02:19.300Z,8.83
2023-10-17T17:07:22.476Z,8.62
2023-10-17T17:12:24.166Z,8.33
2023-10-17T17:17:25.924Z,8.14
2023-10-17T17:22:28.940Z,7.93
2023-10-17T17:27:30.800Z,7.86
2023-10-17T17:32:32.648Z,7.71
2023-10-17T17:37:35.723Z,7.59
2023-10-17T17:42:38.901Z,7.46
2023-10-17T17:47:40.837Z,7.33
2023-10-17T17:52:44.097Z,7.13
2023-10-17T17:57:45.783Z,7.07
2023-10-17T18:02:47.576Z,6.88
2023-10-17T18:07:50.878Z,6.72
2023-10-17T18:12:52.599Z,6.61
2023-10-17T18:17:54.716Z,6.46
2023-10-17T18:22:58.004Z,6.34
2023-10-17T18:27:59.922Z,6.18
2023-10-17T18:33:01.805Z,6.01
2023-10-17T18:38:05.334Z,5.86
2023-10-17T18:43:06.894Z,5.72
2023-10-17T18:48:08.414Z,5.56
2023-10-17T18:53:11.435Z,5.42
2023-10-17T18:58:13.150Z,5.33
2023-10-17T19:03:14.933Z,5.27
2023-10-17T19:08:18.064Z,5.17
2023-10-17T19:13:19.662Z,5.09
2023-10-17T19:18:21.923Z,5.02
2023-10-17T19:23:25.019Z,4.33
2023-10-17T19:28:26.901Z,4.82
2023-10-17T19:33:28.754Z,4.76
2023-10-17T19:38:31.753Z,4.68
2023-10-17T19:43:33.401Z,4.38
2023-10-17T19:48:35.136Z,4.42
2023-10-17T19:53:38.152Z,4.38
2023-10-17T19:58:39.836Z,4.32
2023-10-17T20:03:41.756Z,4.28
2023-10-17T20:08:44.900Z,4.21
2023-10-17T20:13:46.659Z,4.07
2023-10-17T20:18:48.395Z,4.07
2023-10-17T20:23:51.495Z,4.04
2023-10-17T20:28:53.342Z,3.92
2023-10-17T20:33:55.221Z,3.87
2023-10-17T20:38:58.353Z,3.78
2023-10-17T20:44:00.011Z,3.77
2023-10-17T20:49:01.717Z,3.71
2023-10-17T20:54:05.450Z,3.68
2023-10-17T20:59:07.181Z,3.54
2023-10-17T21:04:09.014Z,3.56
2023-10-17T21:09:12.217Z,3.48
2023-10-17T21:14:13.858Z,3.24
2023-10-17T21:19:15.692Z,3.28
2023-10-17T21:24:18.738Z,3.25
2023-10-17T21:29:20.627Z,3.20
2023-10-17T21:34:22.549Z,3.00
2023-10-17T21:39:25.620Z,3.16
2023-10-17T21:44:27.491Z,3.12
2023-10-17T21:49:29.513Z,3.09
2023-10-17T21:54:33.021Z,3.03
2023-10-17T21:59:34.716Z,2.99
2023-10-17T22:04:36.475Z,2.95
2023-10-17T22:09:39.948Z,2.92
2023-10-17T22:14:41.603Z,2.91
2023-10-17T22:19:43.522Z,2.85
2023-10-17T22:24:54.744Z,2.86
2023-10-17T22:29:57.145Z,2.82
2023-10-17T22:34:59.076Z,2.77
2023-10-17T22:40:02.410Z,2.75
2023-10-17T22:45:04.297Z,2.69
2023-10-17T22:50:06.132Z,2.61
2023-10-17T22:55:09.516Z,2.58
2023-10-17T23:00:12.708Z,2.47
2023-10-17T23:05:14.767Z,2.48
2023-10-17T23:10:18.155Z,2.47
2023-10-17T23:15:20.081Z,2.42
2023-10-17T23:20:23.165Z,2.43
2023-10-17T23:25:26.238Z,2.11
2023-10-17T23:30:28.020Z,2.24
2023-10-17T23:35:29.916Z,2.57
2023-10-17T23:40:32.900Z,2.57
2023-10-17T23:45:34.713Z,2.60
2023-10-17T23:50:38.928Z,2.23
2023-10-17T23:55:41.971Z,2.59
